KFFA/FFA METAR and TAF weather

Enter ICAO airport designator
Station Type Date Time Source
KFFA METAR 2022/06/30 02:15 UTC NOAA

KFFA 300215Z AUTO 00000KT 10SM CLR 22/17 A3025 RMK AO2 T02180171


Station Type Date Time Source
KFFA Decoded METAR 2022/06/30 02:15 UTC NOAA

Kill Devil Hills, First Flight Airport, NC, United States (KFFA) 36-01N 075-40W
Jun 29, 2022 - 10:15 PM EDT / 2022.06.30 0215 UTC
Wind: Calm:0
Visibility: 10 mile(s):0
Sky conditions: clear
Temperature: 71.2 F (21.8 C)
Dew Point: 62.8 F (17.1 C)
Relative Humidity: 74%
Pressure (altimeter): 30.25 in. Hg (1024 hPa)
ob: KFFA 300215Z AUTO 00000KT 10SM CLR 22/17 A3025 RMK AO2 T02180171
cycle: 2

Station Type Date Time Source
KFFA TAF UTC NOAA

Error!

Example: see airport list